createdAt,value
2018-07-08T00:01:20.932Z,94892.47
2018-07-08T00:03:46.932Z,94891.49
2018-07-08T00:06:12.938Z,94890.11
2018-07-08T00:08:38.951Z,94891.09
2018-07-08T00:11:04.954Z,94886.94
2018-07-08T00:13:30.955Z,94890.52
2018-07-08T00:15:56.988Z,94891.49
2018-07-08T00:18:22.994Z,94885.97
2018-07-08T00:20:49.001Z,94886.54
2018-07-08T00:23:15.009Z,94881.81
2018-07-08T00:25:41.012Z,94881.99
2018-07-08T00:28:07.016Z,94876.47
2018-07-08T00:30:33.034Z,94875.08
2018-07-08T00:32:59.040Z,94880.81
2018-07-08T00:35:25.048Z,94876.06
2018-07-08T00:37:51.052Z,94880.41
2018-07-08T00:40:17.099Z,94883.58
2018-07-08T00:42:43.107Z,94878.23
2018-07-08T00:45:09.114Z,94881.80
2018-07-08T00:47:35.113Z,94874.68
2018-07-08T00:50:01.155Z,94879.03
2018-07-08T00:52:27.156Z,94880.41
2018-07-08T00:54:53.195Z,94881.80
2018-07-08T00:57:19.190Z,94880.02
2018-07-08T00:59:45.250Z,94880.02
2018-07-08T01:02:11.245Z,94888.30
2018-07-08T01:04:37.239Z,94883.58
2018-07-08T01:07:03.243Z,94881.19
2018-07-08T01:09:29.254Z,94884.35
2018-07-08T01:11:55.260Z,94883.95
2018-07-08T01:14:21.266Z,94872.13
2018-07-08T01:16:47.273Z,94875.47
2018-07-08T01:19:13.277Z,94872.13
2018-07-08T01:21:39.288Z,94867.98
2018-07-08T01:24:05.284Z,94870.92
2018-07-08T01:26:31.291Z,94877.83
2018-07-08T01:28:57.292Z,94874.06
2018-07-08T01:31:23.294Z,94878.40
2018-07-08T01:33:49.301Z,94877.83
2018-07-08T01:36:15.344Z,94873.68
2018-07-08T01:38:41.338Z,94880.19
2018-07-08T01:41:07.341Z,94875.64
2018-07-08T01:43:33.347Z,94873.68
2018-07-08T01:45:59.349Z,94868.73
2018-07-08T01:48:25.350Z,94874.66
2018-07-08T01:50:51.360Z,94868.73
2018-07-08T01:53:17.365Z,94866.58
2018-07-08T01:55:43.371Z,94861.05
2018-07-08T01:58:09.409Z,94856.30
2018-07-08T02:00:35.412Z,94863.61
2018-07-08T02:03:01.417Z,94865.80
2018-07-08T02:05:27.420Z,94866.38
2018-07-08T02:07:53.431Z,94867.34
2018-07-08T02:10:19.441Z,94855.89
2018-07-08T02:12:45.445Z,94858.86
2018-07-08T02:15:11.439Z,94860.64
2018-07-08T02:17:37.444Z,94859.84
2018-07-08T02:20:03.452Z,94862.61
2018-07-08T02:22:29.461Z,94857.48
2018-07-08T02:24:55.457Z,94861.40
2018-07-08T02:27:21.459Z,94864.97
2018-07-08T02:29:47.464Z,94860.02
2018-07-08T02:32:13.465Z,94854.31
2018-07-08T02:34:39.472Z,94852.94
2018-07-08T02:37:05.491Z,94854.31
2018-07-08T02:39:31.497Z,94849.77
2018-07-08T02:41:57.494Z,94853.91
2018-07-08T02:44:23.502Z,94854.31
2018-07-08T02:46:49.502Z,94854.72
2018-07-08T02:49:15.505Z,94855.12
2018-07-08T02:51:41.508Z,94855.70
2018-07-08T02:54:07.520Z,94854.72
2018-07-08T02:56:33.527Z,94854.31
2018-07-08T02:58:59.522Z,94852.53
2018-07-08T03:01:25.523Z,94851.15
2018-07-08T03:03:51.525Z,94841.48
2018-07-08T03:06:17.528Z,94853.11
2018-07-08T03:08:43.529Z,94850.75
2018-07-08T03:11:09.539Z,94850.34
2018-07-08T03:13:35.534Z,94853.72
2018-07-08T03:16:01.535Z,94863.18
2018-07-08T03:18:27.530Z,94857.86
2018-07-08T03:20:53.535Z,94855.50
2018-07-08T03:23:19.545Z,94861.03
2018-07-08T03:25:45.543Z,94855.67
2018-07-08T03:28:11.542Z,94864.94
2018-07-08T03:30:37.544Z,94856.08
2018-07-08T03:33:03.542Z,94851.13
2018-07-08T03:35:29.552Z,94853.72
2018-07-08T03:37:55.547Z,94851.94
2018-07-08T03:40:21.563Z,94845.42
2018-07-08T03:42:47.560Z,94842.66
2018-07-08T03:45:13.567Z,94842.66
2018-07-08T03:47:39.575Z,94833.97
2018-07-08T03:50:05.574Z,94835.75
2018-07-08T03:52:31.576Z,94834.77
2018-07-08T03:54:57.581Z,94838.92
2018-07-08T03:57:23.578Z,94837.54
2018-07-08T03:59:49.578Z,94836.33
2018-07-08T04:02:15.579Z,94837.31
2018-07-08T04:04:41.583Z,94845.60
2018-07-08T04:07:07.583Z,94847.38
2018-07-08T04:09:33.579Z,94844.80
2018-07-08T04:11:59.588Z,94846.18
2018-07-08T04:14:25.587Z,94852.51
2018-07-08T04:16:51.594Z,94849.95
2018-07-08T04:19:17.602Z,94847.96
2018-07-08T04:21:43.608Z,94857.23
2018-07-08T04:24:09.613Z,94852.11
2018-07-08T04:26:35.619Z,94850.73
2018-07-08T04:29:01.620Z,94848.36
2018-07-08T04:31:27.623Z,94852.51
2018-07-08T04:33:53.674Z,94849.75
2018-07-08T04:36:19.671Z,94850.15
2018-07-08T04:38:45.668Z,94851.53
2018-07-08T04:41:11.671Z,94851.53
2018-07-08T04:43:37.673Z,94851.53
2018-07-08T04:46:03.678Z,94855.67
2018-07-08T04:48:29.684Z,94855.67
2018-07-08T04:50:55.678Z,94855.27
2018-07-08T04:53:21.684Z,94848.77
2018-07-08T04:55:47.689Z,94854.47
2018-07-08T04:58:13.698Z,94853.09
2018-07-08T05:00:39.699Z,94854.47
2018-07-08T05:03:05.707Z,94850.73
2018-07-08T05:05:31.714Z,94846.18
2018-07-08T05:07:57.711Z,94853.29
2018-07-08T05:10:23.720Z,94851.34
2018-07-08T05:12:49.730Z,94855.48
2018-07-08T05:15:15.736Z,94855.08
2018-07-08T05:17:41.741Z,94864.75
2018-07-08T05:20:07.741Z,94866.13
2018-07-08T05:22:33.739Z,94866.53
2018-07-08T05:24:59.745Z,94865.15
2018-07-08T05:27:25.743Z,94871.25
2018-07-08T05:29:51.789Z,94869.88
2018-07-08T05:32:17.752Z,94874.82
2018-07-08T05:34:43.769Z,94870.85
2018-07-08T05:37:09.778Z,94878.97
2018-07-08T05:39:35.803Z,94878.73
2018-07-08T05:42:01.810Z,94880.92
2018-07-08T05:44:27.836Z,94884.49
2018-07-08T05:46:53.830Z,94882.10
2018-07-08T05:49:19.830Z,94884.27
2018-07-08T05:51:45.831Z,94884.27
2018-07-08T05:54:11.839Z,94887.03
2018-07-08T05:56:37.845Z,94878.95
2018-07-08T05:59:03.845Z,94887.43
2018-07-08T06:01:29.847Z,94887.61
2018-07-08T06:03:55.891Z,94890.37
2018-07-08T06:06:21.897Z,94883.86
2018-07-08T06:08:47.903Z,94880.70
2018-07-08T06:11:13.914Z,94878.34
2018-07-08T06:13:39.912Z,94879.31
2018-07-08T06:16:05.930Z,94877.94
2018-07-08T06:18:31.959Z,94881.91
2018-07-08T06:20:57.935Z,94875.98
2018-07-08T06:23:23.938Z,94882.88
2018-07-08T06:28:15.954Z,94882.48
2018-07-08T06:30:41.952Z,94880.70
2018-07-08T06:33:07.956Z,94879.72
2018-07-08T06:35:33.961Z,94875.58
2018-07-08T06:37:59.967Z,94877.36
2018-07-08T06:40:25.974Z,94868.27
2018-07-08T06:42:51.983Z,94879.72
2018-07-08T06:45:17.984Z,94874.19
2018-07-08T06:47:43.982Z,94876.36
2018-07-08T06:50:09.993Z,94877.73
2018-07-08T06:52:36.000Z,94879.12
2018-07-08T06:55:02.039Z,94875.38
2018-07-08T06:57:28.047Z,94874.39
2018-07-08T06:59:54.048Z,94872.21
2018-07-08T07:02:20.058Z,94871.81
2018-07-08T07:04:46.056Z,94879.12
2018-07-08T07:07:12.061Z,94874.97
2018-07-08T07:09:38.064Z,94875.95
2018-07-08T07:12:04.069Z,94873.59
2018-07-08T07:14:30.081Z,94876.76
2018-07-08T07:16:56.080Z,94871.03
2018-07-08T07:19:22.086Z,94867.09
2018-07-08T07:21:48.082Z,94871.63
2018-07-08T07:24:14.124Z,94871.23
2018-07-08T07:26:40.088Z,94867.27
2018-07-08T07:29:06.086Z,94868.87
2018-07-08T07:31:32.111Z,94870.05
2018-07-08T07:33:58.112Z,94865.13
2018-07-08T07:36:24.130Z,94865.70
2018-07-08T07:38:50.141Z,94865.70
2018-07-08T07:41:16.140Z,94862.54
2018-07-08T07:43:42.138Z,94861.56
2018-07-08T07:46:08.134Z,94860.18
2018-07-08T07:48:34.138Z,94860.18
2018-07-08T07:51:00.146Z,94865.13
2018-07-08T07:53:26.154Z,94864.33
2018-07-08T07:55:52.167Z,94865.70
2018-07-08T07:58:18.171Z,94863.75
2018-07-08T08:00:44.179Z,94863.34
2018-07-08T08:03:10.186Z,94870.25
2018-07-08T08:05:36.187Z,94860.58
2018-07-08T08:08:02.213Z,94868.06
2018-07-08T08:10:28.220Z,94865.70
2018-07-08T08:12:54.244Z,94863.92
2018-07-08T08:15:20.240Z,94863.34
2018-07-08T08:17:46.244Z,94869.45
2018-07-08T08:20:12.253Z,94867.89
2018-07-08T08:22:38.268Z,94867.48
2018-07-08T08:25:04.285Z,94863.12
2018-07-08T08:27:30.291Z,94863.92
2018-07-08T08:29:56.290Z,94864.72
2018-07-08T08:32:22.290Z,94865.30
2018-07-08T08:34:48.296Z,94858.39
2018-07-08T08:37:14.307Z,94860.76
2018-07-08T08:39:40.312Z,94859.78
2018-07-08T08:42:06.313Z,94857.02
2018-07-08T08:44:32.379Z,94861.56
2018-07-08T08:46:58.393Z,94858.80
2018-07-08T08:49:24.403Z,94858.39
2018-07-08T08:51:50.404Z,94855.63
2018-07-08T08:54:16.437Z,94855.23
2018-07-08T08:56:42.443Z,94849.70
2018-07-08T08:59:08.492Z,94848.14
2018-07-08T09:01:34.471Z,94843.38
2018-07-08T09:04:00.476Z,94843.38
2018-07-08T09:06:26.480Z,94840.23
2018-07-08T09:08:52.488Z,94838.66
2018-07-08T09:11:18.500Z,94841.02
2018-07-08T09:13:44.525Z,94842.39
2018-07-08T09:16:10.521Z,94844.75
2018-07-08T09:18:36.528Z,94841.22
2018-07-08T09:21:02.528Z,94844.75
2018-07-08T09:23:28.530Z,94841.22
2018-07-08T09:25:54.553Z,94854.42
2018-07-08T09:28:20.559Z,94850.69
2018-07-08T09:30:46.573Z,94860.97
2018-07-08T09:33:12.581Z,94855.80
2018-07-08T09:35:38.580Z,94868.84
2018-07-08T09:38:04.615Z,94872.59
2018-07-08T09:40:30.619Z,94869.59
2018-07-08T09:42:56.621Z,94871.39
2018-07-08T09:45:22.631Z,94878.90
2018-07-08T09:47:48.653Z,94871.99
2018-07-08T09:50:14.650Z,94870.78
2018-07-08T09:52:40.702Z,94864.48
2018-07-08T09:55:06.656Z,94860.53
2018-07-08T09:57:32.650Z,94864.28
2018-07-08T09:59:58.714Z,94862.90
2018-07-08T10:02:24.723Z,94869.80
2018-07-08T10:04:50.768Z,94871.19
2018-07-08T10:07:16.730Z,94872.97
2018-07-08T10:09:42.731Z,94860.53
2018-07-08T10:12:08.777Z,94871.99
2018-07-08T10:14:34.824Z,94871.77
2018-07-08T10:17:00.853Z,94875.73
2018-07-08T10:19:26.972Z,94874.35
2018-07-08T10:21:52.902Z,94876.72
2018-07-08T10:24:18.926Z,94887.56
2018-07-08T10:26:44.935Z,94884.02
2018-07-08T10:29:10.940Z,94886.78
2018-07-08T10:31:36.948Z,94885.98
2018-07-08T10:34:02.952Z,94889.55
2018-07-08T10:36:28.981Z,94880.45
2018-07-08T10:38:54.955Z,94881.44
2018-07-08T10:41:20.960Z,94889.32
2018-07-08T10:43:46.969Z,94883.80
2018-07-08T10:46:12.978Z,94884.60
2018-07-08T10:48:38.989Z,94882.81
2018-07-08T10:51:04.993Z,94877.69
2018-07-08T10:53:31.002Z,94875.91
2018-07-08T10:55:57.013Z,94875.33
2018-07-08T10:58:23.019Z,94878.67
2018-07-08T11:00:49.022Z,94874.53
2018-07-08T11:03:15.032Z,94874.93
2018-07-08T11:05:41.034Z,94868.42
2018-07-08T11:08:07.038Z,94872.17
2018-07-08T11:10:33.122Z,94870.38
2018-07-08T11:12:59.123Z,94863.87
2018-07-08T11:15:25.132Z,94867.62
2018-07-08T11:17:51.144Z,94866.23
2018-07-08T11:20:17.152Z,94860.53
2018-07-08T11:22:43.169Z,94861.92
2018-07-08T11:25:09.179Z,94859.93
2018-07-08T11:27:35.180Z,94859.73
2018-07-08T11:30:01.195Z,94854.78
2018-07-08T11:32:27.203Z,94856.57
2018-07-08T11:34:53.239Z,94852.42
2018-07-08T11:37:19.251Z,94854.20
2018-07-08T11:39:45.253Z,94854.78
2018-07-08T11:42:11.259Z,94855.59
2018-07-08T11:44:37.274Z,94853.23
2018-07-08T11:47:03.272Z,94849.66
2018-07-08T11:49:29.334Z,94857.55
2018-07-08T11:51:55.304Z,94856.97
2018-07-08T11:54:21.304Z,94851.05
2018-07-08T11:56:47.326Z,94852.02
2018-07-08T11:59:13.345Z,94850.06
2018-07-08T12:01:39.353Z,94858.35
2018-07-08T12:04:05.363Z,94860.53
2018-07-08T12:06:31.476Z,94857.38
2018-07-08T12:08:57.421Z,94858.17
2018-07-08T12:11:23.402Z,94857.16
2018-07-08T12:13:49.416Z,94847.30
2018-07-08T12:16:15.414Z,94849.08
2018-07-08T12:18:41.434Z,94844.36
2018-07-08T12:21:07.461Z,94841.59
2018-07-08T12:23:33.449Z,94843.96
2018-07-08T12:25:59.450Z,94835.47
2018-07-08T12:28:25.456Z,94838.23
2018-07-08T12:30:51.469Z,94837.05
2018-07-08T12:33:17.472Z,94836.84
2018-07-08T12:35:43.485Z,94837.45
2018-07-08T12:38:09.510Z,94839.20
2018-07-08T12:40:35.515Z,94837.25
2018-07-08T12:43:01.516Z,94834.09
2018-07-08T12:45:27.522Z,94838.45
2018-07-08T12:47:53.648Z,94841.64
2018-07-08T12:50:19.621Z,94839.27
2018-07-08T12:52:45.626Z,94834.97
2018-07-08T12:55:11.635Z,94838.16
2018-07-08T12:57:37.638Z,94834.44
2018-07-08T13:00:03.706Z,94828.33
2018-07-08T13:02:29.716Z,94837.22
2018-07-08T13:04:55.768Z,94830.91
2018-07-08T13:07:21.840Z,94837.64
2018-07-08T13:09:47.891Z,94836.28
2018-07-08T13:12:13.895Z,94836.28
2018-07-08T13:14:39.942Z,94833.52
2018-07-08T13:17:05.945Z,94834.69
2018-07-08T13:19:31.972Z,94831.56
2018-07-08T13:21:57.982Z,94830.98
2018-07-08T13:24:24.005Z,94828.24
2018-07-08T13:26:50.125Z,94828.06
2018-07-08T13:29:16.124Z,94819.16
2018-07-08T13:31:42.125Z,94836.77
2018-07-08T13:34:08.160Z,94836.77
2018-07-08T13:36:34.176Z,94837.34
2018-07-08T13:39:00.279Z,94836.94
2018-07-08T13:41:26.233Z,94839.10
2018-07-08T13:43:52.275Z,94837.92
2018-07-08T13:46:18.461Z,94837.11
2018-07-08T13:48:44.466Z,94837.11
2018-07-08T13:51:10.475Z,94832.39
2018-07-08T13:53:36.516Z,94834.98
2018-07-08T13:56:02.527Z,94833.77
2018-07-08T13:58:28.526Z,94837.34
2018-07-08T14:00:54.629Z,94844.66
2018-07-08T14:03:20.573Z,94837.74
2018-07-08T14:05:46.592Z,94833.39
2018-07-08T14:08:12.596Z,94832.41
2018-07-08T14:10:38.597Z,94836.95
2018-07-08T14:13:04.599Z,94835.58
2018-07-08T14:15:30.613Z,94836.55
2018-07-08T14:17:56.618Z,94831.61
2018-07-08T14:20:22.681Z,94826.32
2018-07-08T14:22:48.625Z,94829.27
2018-07-08T14:25:14.633Z,94831.85
2018-07-08T14:27:40.635Z,94824.74
2018-07-08T14:30:06.656Z,94828.66
2018-07-08T14:32:32.650Z,94827.69
2018-07-08T14:34:58.670Z,94827.45
2018-07-08T14:37:24.693Z,94834.00
2018-07-08T14:39:50.700Z,94826.08
2018-07-08T14:42:16.708Z,94824.33
2018-07-08T14:44:42.731Z,94822.73
2018-07-08T14:47:08.726Z,94818.17
2018-07-08T14:49:34.763Z,94816.45
2018-07-08T14:52:00.766Z,94815.65
2018-07-08T14:54:26.806Z,94815.02
2018-07-08T14:56:52.828Z,94807.93
2018-07-08T14:59:18.836Z,94809.72
2018-07-08T15:01:44.844Z,94816.41
2018-07-08T15:04:10.853Z,94805.97
2018-07-08T15:06:36.860Z,94805.17
2018-07-08T15:09:02.868Z,94811.67
2018-07-08T15:11:28.870Z,94810.50
2018-07-08T15:13:54.889Z,94817.78
2018-07-08T15:16:20.913Z,94818.80
2018-07-08T15:18:46.919Z,94820.55
2018-07-08T15:21:12.991Z,94819.39
2018-07-08T15:23:38.921Z,94827.70
2018-07-08T15:26:04.945Z,94824.94
2018-07-08T15:28:30.972Z,94817.63
2018-07-08T15:30:56.964Z,94828.09
2018-07-08T15:33:22.964Z,94827.69
2018-07-08T15:35:49.387Z,94831.25
2018-07-08T15:38:15.361Z,94828.48
2018-07-08T15:40:41.362Z,94830.45
2018-07-08T15:43:07.366Z,94840.30
2018-07-08T15:45:33.379Z,94840.30
2018-07-08T15:47:59.396Z,94836.55
2018-07-08T15:50:25.402Z,94836.77
2018-07-08T15:52:51.418Z,94832.98
2018-07-08T15:55:17.419Z,94825.90
2018-07-08T15:57:43.425Z,94825.50
2018-07-08T16:00:09.459Z,94825.32
2018-07-08T16:02:35.458Z,94824.38
2018-07-08T16:05:01.461Z,94827.72
2018-07-08T16:07:27.512Z,94830.47
2018-07-08T16:09:53.507Z,94825.92
2018-07-08T16:12:19.511Z,94823.16
2018-07-08T16:14:45.507Z,94829.88
2018-07-08T16:17:11.526Z,94841.91
2018-07-08T16:19:37.523Z,94844.67
2018-07-08T16:22:03.525Z,94850.20
2018-07-08T16:24:29.533Z,94851.00
2018-07-08T16:26:55.535Z,94846.07
2018-07-08T16:29:21.540Z,94850.63
2018-07-08T16:31:47.534Z,94854.56
2018-07-08T16:34:13.556Z,94854.38
2018-07-08T16:36:39.596Z,94860.09
2018-07-08T16:39:05.591Z,94866.02
2018-07-08T16:41:31.592Z,94868.61
2018-07-08T16:43:57.660Z,94876.09
2018-07-08T16:46:23.697Z,94877.66
2018-07-08T16:48:49.678Z,94866.22
2018-07-08T16:51:15.685Z,94860.30
2018-07-08T16:53:41.717Z,94871.93
2018-07-08T16:56:07.747Z,94863.66
2018-07-08T16:58:33.757Z,94865.22
2018-07-08T17:00:59.862Z,94872.57
2018-07-08T17:03:26.061Z,94868.84
2018-07-08T17:05:52.118Z,94872.39
2018-07-08T17:08:18.191Z,94876.52
2018-07-08T17:10:44.115Z,94886.59
2018-07-08T17:13:10.139Z,94881.64
2018-07-08T17:15:36.131Z,94889.74
2018-07-08T17:18:02.157Z,94891.47
2018-07-08T17:20:28.153Z,94890.88
2018-07-08T17:22:54.152Z,94894.84
2018-07-08T17:25:20.154Z,94897.21
2018-07-08T17:27:46.381Z,94894.83
2018-07-08T17:30:12.415Z,94895.00
2018-07-08T17:32:38.416Z,94884.13
2018-07-08T17:35:04.420Z,94888.67
2018-07-08T17:37:30.425Z,94887.11
2018-07-08T17:39:56.577Z,94887.69
2018-07-08T17:42:22.576Z,94887.28
2018-07-08T17:44:48.603Z,94886.89
2018-07-08T17:47:14.603Z,94887.89
2018-07-08T17:49:40.615Z,94893.80
2018-07-08T17:52:06.622Z,94887.67
2018-07-08T17:54:32.637Z,94881.16
2018-07-08T17:56:58.667Z,94882.55
2018-07-08T17:59:24.670Z,94877.42
2018-07-08T18:01:50.681Z,94878.39
2018-07-08T18:04:16.705Z,94877.21
2018-07-08T18:06:42.713Z,94881.36
2018-07-08T18:09:08.753Z,94883.14
2018-07-08T18:11:34.739Z,94882.73
2018-07-08T18:14:00.760Z,94886.30
2018-07-08T18:16:26.753Z,94891.84
2018-07-08T18:18:52.804Z,94892.06
2018-07-08T18:21:18.852Z,94892.64
2018-07-08T18:23:44.819Z,94896.96
2018-07-08T18:26:10.842Z,94890.05
2018-07-08T18:28:36.848Z,94894.80
2018-07-08T18:31:02.851Z,94898.75
2018-07-08T18:33:28.965Z,94903.70
2018-07-08T18:35:54.893Z,94912.39
2018-07-08T18:38:20.896Z,94910.20
2018-07-08T18:40:46.908Z,94917.52
2018-07-08T18:43:12.943Z,94923.05
2018-07-08T18:45:38.943Z,94925.23
2018-07-08T18:48:04.944Z,94929.38
2018-07-08T18:50:30.948Z,94932.92
2018-07-08T18:52:56.956Z,94933.70
2018-07-08T18:55:22.962Z,94935.09
2018-07-08T18:57:48.968Z,94939.80
2018-07-08T19:00:14.963Z,94940.21
2018-07-08T19:02:40.968Z,94936.31
2018-07-08T19:05:06.968Z,94937.30
2018-07-08T19:07:32.977Z,94934.77
2018-07-08T19:09:58.984Z,94934.77
2018-07-08T19:12:25.026Z,94939.50
2018-07-08T19:14:50.988Z,94942.04
2018-07-08T19:17:16.990Z,94945.38
2018-07-08T19:19:43.000Z,94946.19
2018-07-08T19:22:08.999Z,94943.23
2018-07-08T19:24:35.059Z,94939.66
2018-07-08T19:27:01.011Z,94943.62
2018-07-08T19:29:27.683Z,94943.97
2018-07-08T19:31:53.702Z,94944.22
2018-07-08T19:34:19.699Z,94944.80
2018-07-08T19:36:45.708Z,94949.93
2018-07-08T19:39:11.839Z,94950.73
2018-07-08T19:41:37.868Z,94952.70
2018-07-08T19:44:04.176Z,94952.52
2018-07-08T19:46:30.152Z,94955.05
2018-07-08T19:48:57.193Z,94953.30
2018-07-08T19:51:23.913Z,94954.28
2018-07-08T19:53:51.051Z,94952.09
2018-07-08T19:56:17.386Z,94952.50
2018-07-08T19:58:45.583Z,94950.14
2018-07-08T20:01:15.994Z,94952.50
2018-07-08T20:03:45.584Z,94954.45
2018-07-08T20:06:13.054Z,94951.29
2018-07-08T20:08:46.675Z,94952.67
2018-07-08T20:11:13.811Z,94952.47
2018-07-08T20:13:58.980Z,94950.69
2018-07-08T20:16:27.763Z,94950.28
2018-07-08T20:18:58.456Z,94955.81
2018-07-08T20:24:27.864Z,94949.89
2018-07-08T20:26:55.391Z,94950.28
2018-07-08T20:29:21.550Z,94947.70
2018-07-08T20:31:57.530Z,94946.52
2018-07-08T20:34:23.658Z,94949.08
2018-07-08T20:36:50.313Z,94946.72
2018-07-08T20:39:17.088Z,94938.63
2018-07-08T20:41:43.706Z,94937.65
2018-07-08T20:44:09.683Z,94935.87
2018-07-08T20:46:35.694Z,94936.84
2018-07-08T20:49:07.217Z,94937.65
2018-07-08T20:51:33.943Z,94942.17
2018-07-08T20:54:00.043Z,94942.38
2018-07-08T20:56:26.367Z,94938.23
2018-07-08T20:58:53.189Z,94931.89
2018-07-08T21:01:19.197Z,94936.04
2018-07-08T21:03:45.207Z,94932.87
2018-07-08T21:06:12.161Z,94930.92
2018-07-08T21:08:38.176Z,94925.79
2018-07-08T21:11:04.184Z,94928.75
2018-07-08T21:13:30.644Z,94928.75
2018-07-08T21:15:56.650Z,94930.94
2018-07-08T21:18:22.669Z,94930.36
2018-07-08T21:20:48.675Z,94929.55
2018-07-08T21:23:14.778Z,94932.72
2018-07-08T21:25:40.784Z,94933.53
2018-07-08T21:28:06.812Z,94932.32
2018-07-08T21:30:32.828Z,94938.08
2018-07-08T21:32:59.143Z,94949.33
2018-07-08T21:35:25.159Z,94948.52
2018-07-08T21:37:51.156Z,94945.97
2018-07-08T21:40:17.201Z,94947.70
2018-07-08T21:42:43.203Z,94944.36
2018-07-08T21:45:09.195Z,94942.80
2018-07-08T21:47:35.227Z,94946.95
2018-07-08T21:50:02.452Z,94946.95
2018-07-08T21:52:28.499Z,94949.31
2018-07-08T21:54:56.177Z,94950.69
2018-07-08T21:57:23.260Z,94947.52
2018-07-08T21:59:49.885Z,94954.03
2018-07-08T22:02:15.887Z,94950.69
2018-07-08T22:04:42.318Z,94947.13
2018-07-08T22:07:08.340Z,94948.73
2018-07-08T22:09:34.354Z,94951.67
2018-07-08T22:12:00.404Z,94947.70
2018-07-08T22:14:26.415Z,94953.22
2018-07-08T22:16:52.427Z,94955.64
2018-07-08T22:19:19.160Z,94949.89
2018-07-08T22:21:45.196Z,94959.96
2018-07-08T22:24:11.201Z,94957.59
2018-07-08T22:26:37.204Z,94951.84
2018-07-08T22:29:03.213Z,94956.77
2018-07-08T22:31:29.304Z,94947.87
2018-07-08T22:33:55.309Z,94946.67
2018-07-08T22:36:21.307Z,94942.73
2018-07-08T22:38:47.362Z,94943.13
2018-07-08T22:41:13.358Z,94943.31
2018-07-08T22:43:39.364Z,94950.20
2018-07-08T22:46:05.378Z,94945.65
2018-07-08T22:48:31.375Z,94947.03
2018-07-08T22:50:57.385Z,94950.37
2018-07-08T22:53:23.392Z,94946.22
2018-07-08T22:55:49.397Z,94945.63
2018-07-08T22:58:15.401Z,94946.03
2018-07-08T23:00:41.422Z,94943.06
2018-07-08T23:03:07.435Z,94940.48
2018-07-08T23:05:33.434Z,94943.23
2018-07-08T23:07:59.429Z,94941.05
2018-07-08T23:10:25.454Z,94939.27
2018-07-08T23:12:51.461Z,94941.43
2018-07-08T23:15:17.467Z,94941.83
2018-07-08T23:17:43.468Z,94942.41
2018-07-08T23:20:09.551Z,94932.34
2018-07-08T23:22:35.479Z,94930.58
2018-07-08T23:25:01.486Z,94922.30
2018-07-08T23:27:27.481Z,94924.66
2018-07-08T23:29:53.492Z,94926.20
2018-07-08T23:32:19.495Z,94928.17
2018-07-08T23:34:45.496Z,94927.39
2018-07-08T23:37:11.498Z,94934.09
2018-07-08T23:39:37.508Z,94931.13
2018-07-08T23:42:03.513Z,94932.29
2018-07-08T23:44:29.510Z,94929.52
2018-07-08T23:46:55.512Z,94923.59
2018-07-08T23:49:21.541Z,94928.75
2018-07-08T23:51:47.537Z,94924.78
2018-07-08T23:54:13.550Z,94928.12
2018-07-08T23:56:39.557Z,94924.20
2018-07-08T23:59:05.565Z,94924.78
